sensor_id;sensor_type;location;lat;lon;timestamp;pressure;altitude;pressure_sealevel;temperature;humidity
81905;BME280;71370;-33.792;151.032;2024-01-30T00:01:04;100833.68;;;26.14;72.53
81905;BME280;71370;-33.792;151.032;2024-01-30T00:02:11;100833.55;;;26.13;72.56
81905;BME280;71370;-33.792;151.032;2024-01-30T00:03:18;100831.54;;;26.11;72.90
81905;BME280;71370;-33.792;151.032;2024-01-30T00:04:25;100830.26;;;26.12;73.01
81905;BME280;71370;-33.792;151.032;2024-01-30T00:05:32;100828.24;;;26.12;72.46
81905;BME280;71370;-33.792;151.032;2024-01-30T00:06:39;100829.59;;;26.09;72.16
81905;BME280;71370;-33.792;151.032;2024-01-30T00:07:46;100831.35;;;26.07;72.46
81905;BME280;71370;-33.792;151.032;2024-01-30T00:08:53;100827.95;;;26.04;72.23
81905;BME280;71370;-33.792;151.032;2024-01-30T00:10:00;100830.31;;;26.04;72.44
81905;BME280;71370;-33.792;151.032;2024-01-30T00:11:07;100830.84;;;26.04;72.64
81905;BME280;71370;-33.792;151.032;2024-01-30T00:12:14;100830.55;;;26.06;72.96
81905;BME280;71370;-33.792;151.032;2024-01-30T00:13:21;100827.00;;;26.07;72.58
81905;BME280;71370;-33.792;151.032;2024-01-30T00:14:28;100831.48;;;26.10;72.93
81905;BME280;71370;-33.792;151.032;2024-01-30T00:15:35;100832.55;;;26.12;72.98
81905;BME280;71370;-33.792;151.032;2024-01-30T00:16:42;100829.60;;;26.15;72.77
81905;BME280;71370;-33.792;151.032;2024-01-30T00:17:49;100831.60;;;26.17;72.49
81905;BME280;71370;-33.792;151.032;2024-01-30T00:18:58;100832.64;;;26.18;71.36
81905;BME280;71370;-33.792;151.032;2024-01-30T00:20:05;100831.98;;;26.19;71.63
81905;BME280;71370;-33.792;151.032;2024-01-30T00:21:15;100830.69;;;26.22;71.68
81905;BME280;71370;-33.792;151.032;2024-01-30T00:22:21;100831.13;;;26.24;71.25
81905;BME280;71370;-33.792;151.032;2024-01-30T00:23:28;100829.47;;;26.26;71.58
81905;BME280;71370;-33.792;151.032;2024-01-30T00:24:35;100833.12;;;26.28;71.49
81905;BME280;71370;-33.792;151.032;2024-01-30T00:25:42;100834.58;;;26.30;71.33
81905;BME280;71370;-33.792;151.032;2024-01-30T00:26:49;100835.52;;;26.32;71.36
81905;BME280;71370;-33.792;151.032;2024-01-30T00:27:56;100837.23;;;26.33;71.30
81905;BME280;71370;-33.792;151.032;2024-01-30T00:29:03;100841.14;;;26.34;70.76
81905;BME280;71370;-33.792;151.032;2024-01-30T00:30:11;100838.45;;;26.34;70.42
81905;BME280;71370;-33.792;151.032;2024-01-30T00:31:18;100840.05;;;26.34;70.67
81905;BME280;71370;-33.792;151.032;2024-01-30T00:32:25;100840.42;;;26.34;70.70
81905;BME280;71370;-33.792;151.032;2024-01-30T00:33:31;100841.98;;;26.35;70.77
81905;BME280;71370;-33.792;151.032;2024-01-30T00:34:38;100841.52;;;26.36;70.61
81905;BME280;71370;-33.792;151.032;2024-01-30T00:35:45;100843.59;;;26.35;69.92
81905;BME280;71370;-33.792;151.032;2024-01-30T00:36:52;100845.17;;;26.33;70.11
81905;BME280;71370;-33.792;151.032;2024-01-30T00:37:59;100844.16;;;26.30;69.80
81905;BME280;71370;-33.792;151.032;2024-01-30T00:39:06;100844.30;;;26.26;69.79
81905;BME280;71370;-33.792;151.032;2024-01-30T00:40:15;100845.05;;;26.23;70.04
81905;BME280;71370;-33.792;151.032;2024-01-30T00:41:23;100843.55;;;26.21;69.98
81905;BME280;71370;-33.792;151.032;2024-01-30T00:42:30;100845.00;;;26.21;69.97
81905;BME280;71370;-33.792;151.032;2024-01-30T00:43:37;100839.83;;;26.23;70.00
81905;BME280;71370;-33.792;151.032;2024-01-30T00:44:44;100845.73;;;26.26;70.21
81905;BME280;71370;-33.792;151.032;2024-01-30T00:45:51;100846.86;;;26.30;69.87
81905;BME280;71370;-33.792;151.032;2024-01-30T00:46:58;100848.42;;;26.33;69.36
81905;BME280;71370;-33.792;151.032;2024-01-30T00:48:06;100848.81;;;26.35;69.18
81905;BME280;71370;-33.792;151.032;2024-01-30T00:49:12;100849.95;;;26.37;69.61
81905;BME280;71370;-33.792;151.032;2024-01-30T00:50:20;100848.97;;;26.40;69.61
81905;BME280;71370;-33.792;151.032;2024-01-30T00:51:26;100851.45;;;26.42;69.11
81905;BME280;71370;-33.792;151.032;2024-01-30T00:52:35;100850.53;;;26.48;69.33
81905;BME280;71370;-33.792;151.032;2024-01-30T00:53:42;100851.42;;;26.52;68.55
81905;BME280;71370;-33.792;151.032;2024-01-30T00:54:49;100851.52;;;26.55;68.51
81905;BME280;71370;-33.792;151.032;2024-01-30T00:55:56;100850.65;;;26.57;68.57
81905;BME280;71370;-33.792;151.032;2024-01-30T00:57:03;100848.20;;;26.59;68.21
81905;BME280;71370;-33.792;151.032;2024-01-30T00:58:10;100848.36;;;26.59;67.84
81905;BME280;71370;-33.792;151.032;2024-01-30T00:59:17;100846.84;;;26.58;67.50
81905;BME280;71370;-33.792;151.032;2024-01-30T01:00:24;100847.89;;;26.56;67.32
81905;BME280;71370;-33.792;151.032;2024-01-30T01:01:35;100845.40;;;26.53;67.71
81905;BME280;71370;-33.792;151.032;2024-01-30T01:02:42;100842.77;;;26.52;67.15
81905;BME280;71370;-33.792;151.032;2024-01-30T01:03:49;100836.80;;;26.52;66.96
81905;BME280;71370;-33.792;151.032;2024-01-30T01:04:56;100837.48;;;26.55;67.31
81905;BME280;71370;-33.792;151.032;2024-01-30T01:06:03;100835.15;;;26.60;67.44
81905;BME280;71370;-33.792;151.032;2024-01-30T01:07:11;100837.50;;;26.69;66.96
81905;BME280;71370;-33.792;151.032;2024-01-30T01:08:18;100840.50;;;26.77;66.51
81905;BME280;71370;-33.792;151.032;2024-01-30T01:09:24;100837.87;;;26.82;66.50
81905;BME280;71370;-33.792;151.032;2024-01-30T01:10:31;100834.56;;;26.88;66.36
81905;BME280;71370;-33.792;151.032;2024-01-30T01:11:39;100840.37;;;26.94;66.04
81905;BME280;71370;-33.792;151.032;2024-01-30T01:12:48;100839.16;;;26.98;65.14
81905;BME280;71370;-33.792;151.032;2024-01-30T01:13:55;100839.92;;;26.99;65.39
81905;BME280;71370;-33.792;151.032;2024-01-30T01:15:02;100836.25;;;27.00;65.60
81905;BME280;71370;-33.792;151.032;2024-01-30T01:16:09;100837.75;;;27.02;66.21
81905;BME280;71370;-33.792;151.032;2024-01-30T01:17:16;100835.36;;;27.05;66.00
81905;BME280;71370;-33.792;151.032;2024-01-30T01:18:24;100832.87;;;27.08;65.00
81905;BME280;71370;-33.792;151.032;2024-01-30T01:19:31;100825.98;;;27.11;64.33
81905;BME280;71370;-33.792;151.032;2024-01-30T01:20:38;100827.11;;;27.13;64.84
81905;BME280;71370;-33.792;151.032;2024-01-30T01:21:45;100829.16;;;27.14;64.61
81905;BME280;71370;-33.792;151.032;2024-01-30T01:22:52;100824.21;;;27.13;63.67
81905;BME280;71370;-33.792;151.032;2024-01-30T01:23:59;100827.59;;;27.11;64.15
81905;BME280;71370;-33.792;151.032;2024-01-30T01:25:07;100827.77;;;27.09;64.06
81905;BME280;71370;-33.792;151.032;2024-01-30T01:26:14;100829.75;;;27.07;64.59
81905;BME280;71370;-33.792;151.032;2024-01-30T01:27:21;100831.81;;;27.06;64.12
81905;BME280;71370;-33.792;151.032;2024-01-30T01:28:28;100831.41;;;27.05;63.75
81905;BME280;71370;-33.792;151.032;2024-01-30T01:29:35;100830.83;;;27.02;63.66
81905;BME280;71370;-33.792;151.032;2024-01-30T01:30:42;100831.44;;;26.97;63.06
81905;BME280;71370;-33.792;151.032;2024-01-30T01:31:49;100826.91;;;26.93;63.38
81905;BME280;71370;-33.792;151.032;2024-01-30T01:32:55;100823.84;;;26.91;63.77
81905;BME280;71370;-33.792;151.032;2024-01-30T01:34:03;100828.79;;;26.92;64.02
81905;BME280;71370;-33.792;151.032;2024-01-30T01:35:10;100821.75;;;26.92;63.72
81905;BME280;71370;-33.792;151.032;2024-01-30T01:36:17;100823.52;;;26.93;63.74
81905;BME280;71370;-33.792;151.032;2024-01-30T01:37:24;100824.23;;;26.91;64.02
81905;BME280;71370;-33.792;151.032;2024-01-30T01:38:32;100820.30;;;26.90;63.98
81905;BME280;71370;-33.792;151.032;2024-01-30T01:39:39;100821.23;;;26.90;64.39
81905;BME280;71370;-33.792;151.032;2024-01-30T01:40:46;100821.62;;;26.89;64.45
81905;BME280;71370;-33.792;151.032;2024-01-30T01:41:53;100819.79;;;26.90;64.34
81905;BME280;71370;-33.792;151.032;2024-01-30T01:43:03;100821.90;;;26.90;64.61
81905;BME280;71370;-33.792;151.032;2024-01-30T01:44:11;100821.63;;;26.92;64.52
81905;BME280;71370;-33.792;151.032;2024-01-30T01:45:19;100823.55;;;26.92;63.95
81905;BME280;71370;-33.792;151.032;2024-01-30T01:46:32;100824.53;;;26.91;63.83
81905;BME280;71370;-33.792;151.032;2024-01-30T01:47:39;100821.38;;;26.90;63.83
81905;BME280;71370;-33.792;151.032;2024-01-30T01:48:46;100822.22;;;26.89;64.54
81905;BME280;71370;-33.792;151.032;2024-01-30T01:49:54;100820.61;;;26.88;64.04
81905;BME280;71370;-33.792;151.032;2024-01-30T01:51:01;100818.06;;;26.89;64.48
81905;BME280;71370;-33.792;151.032;2024-01-30T01:52:09;100817.42;;;26.90;64.26
81905;BME280;71370;-33.792;151.032;2024-01-30T01:53:16;100820.38;;;26.91;64.24
81905;BME280;71370;-33.792;151.032;2024-01-30T01:54:24;100815.91;;;26.91;63.50
81905;BME280;71370;-33.792;151.032;2024-01-30T01:55:32;100812.57;;;26.90;63.85
81905;BME280;71370;-33.792;151.032;2024-01-30T01:56:39;100812.70;;;26.90;63.66
81905;BME280;71370;-33.792;151.032;2024-01-30T01:57:46;100814.02;;;26.89;63.06
81905;BME280;71370;-33.792;151.032;2024-01-30T01:58:55;100815.19;;;26.89;63.33
81905;BME280;71370;-33.792;151.032;2024-01-30T02:00:02;100815.49;;;26.89;63.61
81905;BME280;71370;-33.792;151.032;2024-01-30T02:01:11;100810.20;;;26.90;63.24
81905;BME280;71370;-33.792;151.032;2024-01-30T02:02:21;100811.48;;;26.90;63.20
81905;BME280;71370;-33.792;151.032;2024-01-30T02:03:30;100808.06;;;26.90;63.17
81905;BME280;71370;-33.792;151.032;2024-01-30T02:04:37;100803.86;;;26.90;63.24
81905;BME280;71370;-33.792;151.032;2024-01-30T02:05:44;100805.08;;;26.93;63.39
81905;BME280;71370;-33.792;151.032;2024-01-30T02:06:52;100803.80;;;26.95;63.44
81905;BME280;71370;-33.792;151.032;2024-01-30T02:07:59;100800.98;;;26.99;63.25
81905;BME280;71370;-33.792;151.032;2024-01-30T02:09:06;100798.17;;;26.98;63.04
81905;BME280;71370;-33.792;151.032;2024-01-30T02:10:13;100798.52;;;26.98;63.17
81905;BME280;71370;-33.792;151.032;2024-01-30T02:11:23;100796.38;;;27.00;62.58
81905;BME280;71370;-33.792;151.032;2024-01-30T02:12:30;100789.20;;;26.99;62.67
81905;BME280;71370;-33.792;151.032;2024-01-30T02:13:37;100790.37;;;27.01;63.06
81905;BME280;71370;-33.792;151.032;2024-01-30T02:14:45;100791.27;;;27.03;62.39
81905;BME280;71370;-33.792;151.032;2024-01-30T02:15:52;100784.94;;;27.06;62.36
81905;BME280;71370;-33.792;151.032;2024-01-30T02:16:59;100788.05;;;27.09;62.44
81905;BME280;71370;-33.792;151.032;2024-01-30T02:18:06;100781.95;;;27.13;62.04
81905;BME280;71370;-33.792;151.032;2024-01-30T02:19:13;100781.45;;;27.15;62.07
81905;BME280;71370;-33.792;151.032;2024-01-30T02:20:21;100777.59;;;27.20;62.40
81905;BME280;71370;-33.792;151.032;2024-01-30T02:21:28;100778.23;;;27.23;62.38
81905;BME280;71370;-33.792;151.032;2024-01-30T02:22:36;100780.33;;;27.27;62.06
81905;BME280;71370;-33.792;151.032;2024-01-30T02:23:46;100779.53;;;27.27;61.92
81905;BME280;71370;-33.792;151.032;2024-01-30T02:24:53;100782.41;;;27.28;61.46
81905;BME280;71370;-33.792;151.032;2024-01-30T02:26:00;100786.16;;;27.26;61.14
81905;BME280;71370;-33.792;151.032;2024-01-30T02:27:07;100778.58;;;27.24;61.50
81905;BME280;71370;-33.792;151.032;2024-01-30T02:28:14;100783.39;;;27.27;61.52
81905;BME280;71370;-33.792;151.032;2024-01-30T02:29:22;100780.02;;;27.30;61.39
81905;BME280;71370;-33.792;151.032;2024-01-30T02:30:29;100782.48;;;27.36;61.55
81905;BME280;71370;-33.792;151.032;2024-01-30T02:31:35;100780.95;;;27.41;61.19
81905;BME280;71370;-33.792;151.032;2024-01-30T02:32:42;100781.34;;;27.45;60.89
81905;BME280;71370;-33.792;151.032;2024-01-30T02:33:49;100779.74;;;27.47;60.61
81905;BME280;71370;-33.792;151.032;2024-01-30T02:34:56;100782.48;;;27.46;60.09
81905;BME280;71370;-33.792;151.032;2024-01-30T02:36:03;100780.25;;;27.43;60.27
81905;BME280;71370;-33.792;151.032;2024-01-30T02:37:10;100781.70;;;27.41;60.80
81905;BME280;71370;-33.792;151.032;2024-01-30T02:38:17;100776.77;;;27.39;60.54
81905;BME280;71370;-33.792;151.032;2024-01-30T02:39:24;100777.36;;;27.38;60.94
81905;BME280;71370;-33.792;151.032;2024-01-30T02:40:31;100777.66;;;27.39;60.70
81905;BME280;71370;-33.792;151.032;2024-01-30T02:41:38;100774.90;;;27.40;60.36
81905;BME280;71370;-33.792;151.032;2024-01-30T02:42:45;100770.91;;;27.40;60.37
81905;BME280;71370;-33.792;151.032;2024-01-30T02:43:52;100770.59;;;27.42;60.98
81905;BME280;71370;-33.792;151.032;2024-01-30T02:44:59;100770.41;;;27.46;61.15
81905;BME280;71370;-33.792;151.032;2024-01-30T02:46:06;100771.92;;;27.49;61.39
81905;BME280;71370;-33.792;151.032;2024-01-30T02:47:13;100772.95;;;27.52;60.80
81905;BME280;71370;-33.792;151.032;2024-01-30T02:48:20;100773.34;;;27.54;60.65
81905;BME280;71370;-33.792;151.032;2024-01-30T02:49:27;100769.23;;;27.55;59.99
81905;BME280;71370;-33.792;151.032;2024-01-30T02:50:34;100770.79;;;27.58;60.13
81905;BME280;71370;-33.792;151.032;2024-01-30T02:51:41;100768.34;;;27.64;60.20
81905;BME280;71370;-33.792;151.032;2024-01-30T02:52:48;100768.68;;;27.71;60.36
81905;BME280;71370;-33.792;151.032;2024-01-30T02:53:54;100764.69;;;27.81;59.96
81905;BME280;71370;-33.792;151.032;2024-01-30T02:55:02;100760.67;;;28.01;60.17
81905;BME280;71370;-33.792;151.032;2024-01-30T02:56:08;100758.56;;;28.22;59.22
81905;BME280;71370;-33.792;151.032;2024-01-30T02:57:16;100758.15;;;28.36;58.89
81905;BME280;71370;-33.792;151.032;2024-01-30T02:58:23;100760.36;;;28.50;59.69
81905;BME280;71370;-33.792;151.032;2024-01-30T02:59:30;100758.74;;;28.71;58.22
81905;BME280;71370;-33.792;151.032;2024-01-30T03:00:39;100759.82;;;28.87;57.90
81905;BME280;71370;-33.792;151.032;2024-01-30T03:01:46;100759.92;;;28.96;56.19
81905;BME280;71370;-33.792;151.032;2024-01-30T03:02:54;100754.85;;;29.02;56.35
81905;BME280;71370;-33.792;151.032;2024-01-30T03:04:00;100752.41;;;29.09;56.94
81905;BME280;71370;-33.792;151.032;2024-01-30T03:05:08;100751.36;;;29.12;56.29
81905;BME280;71370;-33.792;151.032;2024-01-30T03:06:15;100751.64;;;29.11;55.32
81905;BME280;71370;-33.792;151.032;2024-01-30T03:07:23;100749.00;;;29.08;55.66
81905;BME280;71370;-33.792;151.032;2024-01-30T03:08:30;100749.08;;;29.04;55.37
81905;BME280;71370;-33.792;151.032;2024-01-30T03:09:37;100749.76;;;28.98;55.33
81905;BME280;71370;-33.792;151.032;2024-01-30T03:10:44;100749.84;;;28.93;56.11
81905;BME280;71370;-33.792;151.032;2024-01-30T03:11:51;100751.02;;;28.88;56.16
81905;BME280;71370;-33.792;151.032;2024-01-30T03:12:58;100753.35;;;28.82;55.98
81905;BME280;71370;-33.792;151.032;2024-01-30T03:14:05;100750.76;;;28.75;55.98
81905;BME280;71370;-33.792;151.032;2024-01-30T03:15:12;100752.70;;;28.67;56.26
81905;BME280;71370;-33.792;151.032;2024-01-30T03:16:19;100749.08;;;28.59;56.51
81905;BME280;71370;-33.792;151.032;2024-01-30T03:17:26;100753.52;;;28.52;56.72
81905;BME280;71370;-33.792;151.032;2024-01-30T03:18:33;100752.34;;;28.47;56.65
81905;BME280;71370;-33.792;151.032;2024-01-30T03:19:40;100755.89;;;28.42;57.02
81905;BME280;71370;-33.792;151.032;2024-01-30T03:20:46;100755.73;;;28.35;56.99
81905;BME280;71370;-33.792;151.032;2024-01-30T03:21:53;100756.48;;;28.28;56.79
81905;BME280;71370;-33.792;151.032;2024-01-30T03:23:01;100753.94;;;28.21;57.79
81905;BME280;71370;-33.792;151.032;2024-01-30T03:24:08;100750.63;;;28.17;57.39
81905;BME280;71370;-33.792;151.032;2024-01-30T03:25:15;100757.44;;;28.15;57.78
81905;BME280;71370;-33.792;151.032;2024-01-30T03:26:22;100750.01;;;28.15;57.69
81905;BME280;71370;-33.792;151.032;2024-01-30T03:27:29;100752.54;;;28.16;58.12
81905;BME280;71370;-33.792;151.032;2024-01-30T03:28:36;100753.69;;;28.17;58.74
81905;BME280;71370;-33.792;151.032;2024-01-30T03:29:43;100753.67;;;28.19;58.84
81905;BME280;71370;-33.792;151.032;2024-01-30T03:30:49;100753.77;;;28.22;58.46
81905;BME280;71370;-33.792;151.032;2024-01-30T03:31:56;100752.35;;;28.24;58.27
81905;BME280;71370;-33.792;151.032;2024-01-30T03:33:03;100753.59;;;28.26;57.58
81905;BME280;71370;-33.792;151.032;2024-01-30T03:34:11;100753.70;;;28.27;57.95
81905;BME280;71370;-33.792;151.032;2024-01-30T03:35:19;100750.35;;;28.28;57.58
81905;BME280;71370;-33.792;151.032;2024-01-30T03:36:26;100746.45;;;28.29;57.90
81905;BME280;71370;-33.792;151.032;2024-01-30T03:37:32;100745.57;;;28.31;57.76
81905;BME280;71370;-33.792;151.032;2024-01-30T03:38:39;100740.55;;;28.33;57.98
81905;BME280;71370;-33.792;151.032;2024-01-30T03:39:46;100740.79;;;28.36;58.54
81905;BME280;71370;-33.792;151.032;2024-01-30T03:40:53;100741.78;;;28.42;58.90
81905;BME280;71370;-33.792;151.032;2024-01-30T03:42:00;100743.15;;;28.44;57.97
81905;BME280;71370;-33.792;151.032;2024-01-30T03:43:07;100740.39;;;28.43;57.11
81905;BME280;71370;-33.792;151.032;2024-01-30T03:44:14;100741.78;;;28.42;56.78
81905;BME280;71370;-33.792;151.032;2024-01-30T03:45:21;100732.56;;;28.41;57.34
81905;BME280;71370;-33.792;151.032;2024-01-30T03:46:28;100732.02;;;28.45;57.23
81905;BME280;71370;-33.792;151.032;2024-01-30T03:47:34;100728.34;;;28.57;57.22
81905;BME280;71370;-33.792;151.032;2024-01-30T03:48:41;100728.52;;;28.75;57.28
81905;BME280;71370;-33.792;151.032;2024-01-30T03:49:48;100727.05;;;28.89;57.23
81905;BME280;71370;-33.792;151.032;2024-01-30T03:50:55;100722.73;;;28.99;57.66
81905;BME280;71370;-33.792;151.032;2024-01-30T03:52:02;100723.96;;;29.07;57.27
81905;BME280;71370;-33.792;151.032;2024-01-30T03:53:10;100726.52;;;29.15;56.29
81905;BME280;71370;-33.792;151.032;2024-01-30T03:54:17;100723.11;;;29.19;55.63
81905;BME280;71370;-33.792;151.032;2024-01-30T03:55:24;100716.14;;;29.20;55.46
81905;BME280;71370;-33.792;151.032;2024-01-30T03:56:31;100723.03;;;29.21;55.52
81905;BME280;71370;-33.792;151.032;2024-01-30T03:57:38;100721.92;;;29.20;55.03
81905;BME280;71370;-33.792;151.032;2024-01-30T03:58:45;100718.63;;;29.16;55.23
81905;BME280;71370;-33.792;151.032;2024-01-30T03:59:51;100718.20;;;29.13;55.33
81905;BME280;71370;-33.792;151.032;2024-01-30T04:00:59;100718.94;;;29.10;55.35
81905;BME280;71370;-33.792;151.032;2024-01-30T04:02:06;100719.70;;;29.08;55.66
81905;BME280;71370;-33.792;151.032;2024-01-30T04:03:14;100719.17;;;29.04;56.22
81905;BME280;71370;-33.792;151.032;2024-01-30T04:04:24;100716.79;;;28.96;55.28
81905;BME280;71370;-33.792;151.032;2024-01-30T04:05:31;100717.98;;;28.87;55.63
81905;BME280;71370;-33.792;151.032;2024-01-30T04:06:38;100718.63;;;28.80;56.01
81905;BME280;71370;-33.792;151.032;2024-01-30T04:07:45;100713.64;;;28.71;56.23
81905;BME280;71370;-33.792;151.032;2024-01-30T04:08:52;100710.70;;;28.64;55.99
81905;BME280;71370;-33.792;151.032;2024-01-30T04:09:59;100708.70;;;28.56;56.54
81905;BME280;71370;-33.792;151.032;2024-01-30T04:11:06;100707.84;;;28.49;56.72
81905;BME280;71370;-33.792;151.032;2024-01-30T04:12:13;100710.48;;;28.42;56.82
81905;BME280;71370;-33.792;151.032;2024-01-30T04:13:20;100704.81;;;28.36;56.93
81905;BME280;71370;-33.792;151.032;2024-01-30T04:14:27;100704.53;;;28.31;57.32
81905;BME280;71370;-33.792;151.032;2024-01-30T04:15:34;100705.52;;;28.28;57.96
81905;BME280;71370;-33.792;151.032;2024-01-30T04:16:41;100706.85;;;28.27;58.11
81905;BME280;71370;-33.792;151.032;2024-01-30T04:17:48;100704.77;;;28.27;58.00
81905;BME280;71370;-33.792;151.032;2024-01-30T04:18:56;100706.80;;;28.26;58.25
81905;BME280;71370;-33.792;151.032;2024-01-30T04:20:03;100706.42;;;28.26;58.42
81905;BME280;71370;-33.792;151.032;2024-01-30T04:21:10;100706.48;;;28.27;57.76
81905;BME280;71370;-33.792;151.032;2024-01-30T04:22:17;100703.65;;;28.25;58.09
81905;BME280;71370;-33.792;151.032;2024-01-30T04:23:24;100704.21;;;28.23;57.74
81905;BME280;71370;-33.792;151.032;2024-01-30T04:24:31;100701.11;;;28.21;57.89
81905;BME280;71370;-33.792;151.032;2024-01-30T04:25:38;100698.91;;;28.19;57.61
81905;BME280;71370;-33.792;151.032;2024-01-30T04:26:45;100700.06;;;28.16;57.67
81905;BME280;71370;-33.792;151.032;2024-01-30T04:27:52;100696.45;;;28.14;58.12
81905;BME280;71370;-33.792;151.032;2024-01-30T04:28:58;100699.52;;;28.12;58.30
81905;BME280;71370;-33.792;151.032;2024-01-30T04:30:06;100698.33;;;28.09;57.97
81905;BME280;71370;-33.792;151.032;2024-01-30T04:31:13;100696.96;;;28.06;58.07
81905;BME280;71370;-33.792;151.032;2024-01-30T04:32:20;100694.64;;;28.06;58.20
81905;BME280;71370;-33.792;151.032;2024-01-30T04:33:27;100690.20;;;28.07;58.26
81905;BME280;71370;-33.792;151.032;2024-01-30T04:34:34;100687.60;;;28.10;58.32
81905;BME280;71370;-33.792;151.032;2024-01-30T04:35:40;100684.40;;;28.13;58.20
81905;BME280;71370;-33.792;151.032;2024-01-30T04:36:47;100683.85;;;28.16;58.41
81905;BME280;71370;-33.792;151.032;2024-01-30T04:37:54;100684.05;;;28.17;58.12
81905;BME280;71370;-33.792;151.032;2024-01-30T04:39:01;100680.80;;;28.18;58.39
81905;BME280;71370;-33.792;151.032;2024-01-30T04:40:10;100683.46;;;28.18;58.81
81905;BME280;71370;-33.792;151.032;2024-01-30T04:41:17;100678.04;;;28.16;58.15
81905;BME280;71370;-33.792;151.032;2024-01-30T04:42:24;100680.65;;;28.15;58.69
81905;BME280;71370;-33.792;151.032;2024-01-30T04:43:30;100679.50;;;28.12;58.28
81905;BME280;71370;-33.792;151.032;2024-01-30T04:44:37;100680.98;;;28.05;58.16
81905;BME280;71370;-33.792;151.032;2024-01-30T04:45:44;100682.01;;;28.00;58.13
81905;BME280;71370;-33.792;151.032;2024-01-30T04:46:51;100680.95;;;27.95;58.42
81905;BME280;71370;-33.792;151.032;2024-01-30T04:47:58;100677.27;;;27.94;58.74
81905;BME280;71370;-33.792;151.032;2024-01-30T04:49:05;100676.92;;;28.00;58.65
81905;BME280;71370;-33.792;151.032;2024-01-30T04:50:13;100672.95;;;28.08;58.56
81905;BME280;71370;-33.792;151.032;2024-01-30T04:51:20;100670.41;;;28.18;58.18
81905;BME280;71370;-33.792;151.032;2024-01-30T04:52:27;100669.84;;;28.27;58.10
81905;BME280;71370;-33.792;151.032;2024-01-30T04:53:34;100663.82;;;28.33;58.05
81905;BME280;71370;-33.792;151.032;2024-01-30T04:54:41;100664.83;;;28.42;58.22
81905;BME280;71370;-33.792;151.032;2024-01-30T04:55:48;100662.23;;;28.57;58.64
81905;BME280;71370;-33.792;151.032;2024-01-30T04:56:55;100657.89;;;28.77;57.71
81905;BME280;71370;-33.792;151.032;2024-01-30T04:58:02;100660.89;;;28.94;57.62
81905;BME280;71370;-33.792;151.032;2024-01-30T04:59:09;100658.64;;;29.08;57.52
81905;BME280;71370;-33.792;151.032;2024-01-30T05:00:16;100658.81;;;29.19;56.21
81905;BME280;71370;-33.792;151.032;2024-01-30T05:01:23;100653.48;;;29.23;55.69
81905;BME280;71370;-33.792;151.032;2024-01-30T05:02:30;100655.01;;;29.23;55.46
81905;BME280;71370;-33.792;151.032;2024-01-30T05:03:36;100649.44;;;29.22;56.12
81905;BME280;71370;-33.792;151.032;2024-01-30T05:04:43;100653.64;;;29.24;56.08
81905;BME280;71370;-33.792;151.032;2024-01-30T05:05:50;100645.34;;;29.23;55.87
81905;BME280;71370;-33.792;151.032;2024-01-30T05:06:57;100647.69;;;29.23;56.00
81905;BME280;71370;-33.792;151.032;2024-01-30T05:08:04;100648.41;;;29.22;56.43
81905;BME280;71370;-33.792;151.032;2024-01-30T05:09:11;100645.20;;;29.23;55.80
81905;BME280;71370;-33.792;151.032;2024-01-30T05:10:18;100646.37;;;29.26;56.22
81905;BME280;71370;-33.792;151.032;2024-01-30T05:11:25;100644.98;;;29.27;56.16
81905;BME280;71370;-33.792;151.032;2024-01-30T05:12:32;100644.02;;;29.30;55.71
81905;BME280;71370;-33.792;151.032;2024-01-30T05:13:39;100639.13;;;29.26;55.76
81905;BME280;71370;-33.792;151.032;2024-01-30T05:14:46;100639.95;;;29.19;55.69
81905;BME280;71370;-33.792;151.032;2024-01-30T05:15:52;100641.88;;;29.14;56.08
81905;BME280;71370;-33.792;151.032;2024-01-30T05:16:59;100646.54;;;29.08;55.80
81905;BME280;71370;-33.792;151.032;2024-01-30T05:18:06;100644.52;;;29.03;55.87
81905;BME280;71370;-33.792;151.032;2024-01-30T05:19:14;100643.38;;;28.98;55.79
81905;BME280;71370;-33.792;151.032;2024-01-30T05:20:21;100637.81;;;28.93;55.82
81905;BME280;71370;-33.792;151.032;2024-01-30T05:21:28;100638.54;;;28.89;56.55
81905;BME280;71370;-33.792;151.032;2024-01-30T05:22:35;100636.44;;;28.86;56.30
81905;BME280;71370;-33.792;151.032;2024-01-30T05:23:41;100636.90;;;28.83;56.35
81905;BME280;71370;-33.792;151.032;2024-01-30T05:24:48;100633.77;;;28.80;56.34
81905;BME280;71370;-33.792;151.032;2024-01-30T05:25:55;100633.76;;;28.76;56.58
81905;BME280;71370;-33.792;151.032;2024-01-30T05:27:02;100633.64;;;28.73;56.83
81905;BME280;71370;-33.792;151.032;2024-01-30T05:28:09;100633.91;;;28.72;56.77
81905;BME280;71370;-33.792;151.032;2024-01-30T05:29:16;100631.52;;;28.73;57.04
81905;BME280;71370;-33.792;151.032;2024-01-30T05:30:23;100629.86;;;28.73;57.18
81905;BME280;71370;-33.792;151.032;2024-01-30T05:31:30;100630.46;;;28.70;57.45
81905;BME280;71370;-33.792;151.032;2024-01-30T05:32:37;100628.77;;;28.69;57.35
81905;BME280;71370;-33.792;151.032;2024-01-30T05:33:44;100626.33;;;28.68;57.62
81905;BME280;71370;-33.792;151.032;2024-01-30T05:34:51;100625.23;;;28.67;58.02
81905;BME280;71370;-33.792;151.032;2024-01-30T05:35:58;100624.23;;;28.66;57.95
81905;BME280;71370;-33.792;151.032;2024-01-30T05:37:05;100620.06;;;28.65;57.91
81905;BME280;71370;-33.792;151.032;2024-01-30T05:38:12;100619.52;;;28.66;58.09